Time;durP1;ratioP1;P1;durP2;ratioP2;P2;SDS_P1;SDS_P2;PMS_P1;PMS_P2;Temp;Humidity;BMP_temperature;BMP_pressure;BME280_temperature;BME280_humidity;BME280_pressure;Samples;Min_cycle;Max_cycle;Signal;HPM_P1;HPM_P2
2022/11/24 00:02:55;;;;;;;3.50;1.10;;;;;;;18.83;47.09;100236.09;16130835;19;129374;-42
2022/11/24 00:08:17;;;;;;;4.57;1.10;;;;;;;18.81;47.16;100245.81;16129507;19;134450;-44
2022/11/24 00:13:39;;;;;;;2.05;1.00;;;;;;;18.79;47.08;100253.53;16127952;19;129635;-42
2022/11/24 00:19:03;;;;;;;3.47;0.93;;;;;;;18.77;47.08;100246.31;16127310;19;129929;-42
2022/11/24 00:24:24;;;;;;;6.25;1.50;;;;;;;18.75;46.83;100251.28;16124155;19;129579;-42
2022/11/24 00:29:46;;;;;;;5.35;1.00;;;;;;;18.74;47.14;100246.84;16125573;19;129161;-42
2022/11/24 00:35:08;;;;;;;3.45;1.00;;;;;;;18.73;46.90;100244.34;16126063;19;129573;-42
2022/11/24 00:40:29;;;;;;;3.67;0.93;;;;;;;18.72;47.03;100242.66;16125066;19;129579;-42
2022/11/24 00:45:55;;;;;;;3.92;1.10;;;;;;;18.70;46.48;100250.41;16126566;19;129499;-41
2022/11/24 00:51:20;;;;;;;3.05;0.80;;;;;;;18.69;46.50;100252.34;16125771;19;129673;-42
2022/11/24 00:56:41;;;;;;;3.00;0.88;;;;;;;18.68;46.79;100258.13;16127419;19;130348;-42
2022/11/24 01:02:03;;;;;;;2.97;0.88;;;;;;;18.65;46.45;100259.50;16125254;19;129371;-42
2022/11/24 01:07:25;;;;;;;4.25;0.95;;;;;;;18.64;46.27;100257.84;16125685;19;129776;-41
2022/11/24 01:12:47;;;;;;;2.33;0.70;;;;;;;18.63;46.43;100261.69;16125260;19;130096;-41
2022/11/24 01:18:08;;;;;;;2.47;0.82;;;;;;;18.62;46.66;100271.09;16124052;19;129696;-42
2022/11/24 01:23:31;;;;;;;4.18;0.90;;;;;;;18.59;46.47;100268.84;16124726;19;129787;-42
2022/11/24 01:28:55;;;;;;;2.97;0.98;;;;;;;18.59;46.48;100277.16;16125650;19;129119;-41
2022/11/24 01:34:16;;;;;;;3.95;0.90;;;;;;;18.57;46.51;100288.53;16126417;19;130080;-41
2022/11/24 01:39:38;;;;;;;2.53;0.90;;;;;;;18.55;46.47;100285.16;16125372;19;130085;-41
2022/11/24 01:45:28;;;;;;;3.25;0.98;;;;;;;18.55;46.11;100282.41;16122686;19;129085;-41
2022/11/24 01:50:56;;;;;;;5.22;0.90;;;;;;;18.53;45.97;100281.00;16121396;19;130523;-43
2022/11/24 01:56:18;;;;;;;2.13;0.80;;;;;;;18.51;46.42;100284.03;16121257;19;131338;-43
2022/11/24 02:01:40;;;;;;;1.90;0.70;;;;;;;18.50;46.02;100296.22;16121164;19;130574;-42
2022/11/24 02:07:05;;;;;;;3.03;0.57;;;;;;;18.50;46.30;100311.97;16123149;19;131015;-43
2022/11/24 02:12:27;;;;;;;1.90;0.63;;;;;;;18.48;46.09;100315.03;16121361;19;129116;-42
2022/11/24 02:17:49;;;;;;;2.75;0.93;;;;;;;18.47;45.91;100316.13;16117160;19;129329;-43
2022/11/24 02:23:23;;;;;;;3.70;0.88;;;;;;;18.48;46.21;100322.47;16118763;19;129606;-42
2022/11/24 02:28:46;;;;;;;2.72;0.98;;;;;;;18.44;45.90;100328.56;16122881;19;129923;-43
2022/11/24 02:34:07;;;;;;;2.65;0.95;;;;;;;18.43;46.17;100329.66;16117262;19;129890;-41
2022/11/24 02:39:29;;;;;;;2.65;0.70;;;;;;;18.42;46.09;100340.97;16118699;19;129445;-41
2022/11/24 02:44:56;;;;;;;1.45;0.60;;;;;;;18.42;46.12;100352.06;16123100;19;129503;-41
2022/11/24 02:50:18;;;;;;;3.22;0.90;;;;;;;18.39;46.29;100350.66;16118388;19;129603;-42
2022/11/24 02:55:40;;;;;;;2.88;1.13;;;;;;;18.39;46.05;100356.19;16117418;19;129142;-42
2022/11/24 03:01:02;;;;;;;2.83;0.80;;;;;;;18.38;45.88;100362.78;16119054;19;135288;-42
2022/11/24 03:06:23;;;;;;;4.47;0.95;;;;;;;18.38;45.92;100365.56;16113303;19;129555;-42
2022/11/24 03:11:45;;;;;;;4.50;1.13;;;;;;;18.37;45.80;100360.28;16124534;19;129832;-43
2022/11/24 03:17:07;;;;;;;4.10;0.93;;;;;;;18.36;46.02;100356.66;16131886;19;130322;-42
2022/11/24 03:22:29;;;;;;;4.50;1.10;;;;;;;18.34;45.47;100358.84;16129135;19;129691;-44
2022/11/24 03:27:50;;;;;;;3.67;0.88;;;;;;;18.34;45.89;100358.03;16132082;19;129574;-41
2022/11/24 03:33:12;;;;;;;4.82;0.82;;;;;;;18.33;45.97;100371.03;16129513;19;130189;-45
2022/11/24 03:38:34;;;;;;;3.42;0.93;;;;;;;18.31;45.53;100381.53;16131676;19;129574;-43
2022/11/24 03:43:55;;;;;;;6.88;0.90;;;;;;;18.31;45.92;100392.63;16129663;19;129440;-43
2022/11/24 03:49:17;;;;;;;3.15;0.95;;;;;;;18.29;45.61;100381.78;16127977;19;130137;-44
2022/11/24 03:54:39;;;;;;;3.22;1.00;;;;;;;18.28;45.81;100390.34;16131033;19;129533;-42
2022/11/24 04:00:01;;;;;;;3.95;0.98;;;;;;;18.28;45.62;100393.13;16129818;19;129746;-44
2022/11/24 04:05:24;;;;;;;4.13;0.80;;;;;;;18.27;45.44;100400.59;16127871;19;130184;-42
2022/11/24 04:10:50;;;;;;;2.75;1.02;;;;;;;18.26;45.63;100401.69;16131375;19;129895;-41
2022/11/24 04:16:11;;;;;;;2.88;0.80;;;;;;;18.25;45.55;100404.69;16128583;19;130705;-44
2022/11/24 04:21:33;;;;;;;4.30;1.17;;;;;;;18.23;45.61;100424.34;16127981;19;129599;-41
2022/11/24 04:26:55;;;;;;;3.25;0.80;;;;;;;18.23;45.87;100434.56;16128283;19;128967;-44
2022/11/24 04:32:17;;;;;;;3.83;0.73;;;;;;;18.22;45.82;100424.59;16127685;19;135012;-41
2022/11/24 04:37:39;;;;;;;3.38;0.90;;;;;;;18.23;45.70;100437.34;16129292;19;128905;-43
2022/11/24 04:43:01;;;;;;;4.50;1.05;;;;;;;18.22;45.76;100449.50;16127312;19;129669;-42
2022/11/24 04:48:22;;;;;;;2.67;0.90;;;;;;;18.21;45.65;100447.84;16126133;19;129133;-43
2022/11/24 04:53:44;;;;;;;3.28;0.70;;;;;;;18.20;45.34;100455.31;16127165;19;129714;-45
2022/11/24 04:59:06;;;;;;;2.83;0.95;;;;;;;18.20;45.24;100451.72;16127889;19;130590;-42
2022/11/24 05:04:29;;;;;;;2.67;0.60;;;;;;;18.19;45.18;100461.13;16124419;19;129036;-42
2022/11/24 05:15:31;;;;;;;2.38;0.60;;;;;;;18.17;45.49;100490.97;16123966;19;130248;-41
2022/11/24 05:20:52;;;;;;;3.40;0.88;;;;;;;18.15;45.46;100488.47;16124214;19;129776;-41
2022/11/24 05:26:14;;;;;;;1.90;0.75;;;;;;;18.13;45.42;100502.56;16122265;19;130591;-42
2022/11/24 05:31:36;;;;;;;3.58;0.70;;;;;;;18.14;45.39;100514.47;16124311;19;129405;-42
2022/11/24 05:37:01;;;;;;;1.90;0.90;;;;;;;18.13;44.93;100516.41;16124072;19;129772;-47
2022/11/24 05:42:42;;;;;;;;;;;;;;;18.09;45.06;100529.06;16124079;19;129825;-42
2022/11/24 05:48:13;;;;;;;2.38;0.60;;;;;;;18.10;45.22;100536.28;16124516;19;130113;-45
2022/11/24 05:53:35;;;;;;;2.40;0.52;;;;;;;18.08;45.04;100549.56;16120662;19;129543;-44
2022/11/24 05:58:57;;;;;;;2.00;0.63;;;;;;;18.08;45.21;100548.69;16121869;19;134436;-45
2022/11/24 06:04:18;;;;;;;3.58;0.80;;;;;;;18.08;45.07;100571.69;16120435;19;129514;-43
2022/11/24 06:09:41;;;;;;;2.55;0.60;;;;;;;18.08;44.94;100574.47;16122831;19;129672;-44
2022/11/24 06:15:04;;;;;;;1.77;0.50;;;;;;;18.07;45.08;100581.09;16122144;19;129624;-47
2022/11/24 06:20:25;;;;;;;1.85;0.70;;;;;;;18.08;44.63;100596.63;16120092;19;128982;-44
2022/11/24 06:25:53;;;;;;;2.15;0.65;;;;;;;18.08;44.91;100599.38;16119248;19;129546;-41
2022/11/24 06:31:14;;;;;;;5.05;0.75;;;;;;;18.08;45.13;100613.22;16117900;19;129474;-43
2022/11/24 06:36:37;;;;;;;3.90;0.90;;;;;;;18.08;44.55;100620.66;16118836;19;129698;-42
2022/11/24 06:41:59;;;;;;;3.45;0.65;;;;;;;18.08;44.40;100635.38;16119134;19;130221;-42
2022/11/24 06:47:20;;;;;;;5.85;1.10;;;;;;;18.07;44.55;100643.91;16140655;19;130125;-43
2022/11/24 06:52:42;;;;;;;4.93;0.88;;;;;;;18.06;44.32;100651.38;16151137;19;131067;-44
2022/11/24 06:58:04;;;;;;;2.83;0.73;;;;;;;18.07;44.36;100666.91;16148367;19;129342;-42
2022/11/24 07:03:26;;;;;;;5.38;0.88;;;;;;;18.06;44.46;100679.06;16147449;19;130795;-43
2022/11/24 07:08:48;;;;;;;5.35;0.70;;;;;;;18.05;44.10;100688.47;16148083;19;129607;-44
2022/11/24 07:14:10;;;;;;;3.40;0.47;;;;;;;18.03;44.10;100710.00;16148603;19;129160;-42
2022/11/24 07:19:32;;;;;;;4.15;0.50;;;;;;;18.03;44.28;100706.41;16150116;19;130243;-42
2022/11/24 07:24:54;;;;;;;3.38;0.60;;;;;;;18.02;43.96;100726.88;16150352;19;129329;-44
2022/11/24 07:30:16;;;;;;;3.42;0.82;;;;;;;18.07;44.12;100735.25;16149239;19;129285;-44
2022/11/24 07:35:37;;;;;;;1.02;0.40;;;;;;;18.30;43.86;100750.94;16150553;19;131109;-42
2022/11/24 07:41:01;;;;;;;2.72;0.70;;;;;;;18.57;43.20;100762.25;16147852;19;130158;-45
2022/11/24 07:46:22;;;;;;;6.60;0.73;;;;;;;18.80;43.04;100762.34;16138825;19;130069;-43
2022/11/24 07:51:44;;;;;;;3.83;0.57;;;;;;;18.85;42.42;100777.16;16137349;19;130199;-44
2022/11/24 07:57:06;;;;;;;1.88;0.65;;;;;;;18.71;42.83;100778.56;16133143;19;129871;-42
2022/11/24 08:02:28;;;;;;;3.97;0.75;;;;;;;18.56;42.77;100793.00;16127348;19;128983;-45
2022/11/24 08:07:49;;;;;;;3.33;0.43;;;;;;;18.48;43.06;100810.00;16122782;19;130107;-45
2022/11/24 08:13:11;;;;;;;3.08;0.70;;;;;;;18.43;42.85;100828.22;16125018;19;129580;-50
2022/11/24 08:18:34;;;;;;;3.00;0.80;;;;;;;18.41;43.10;100835.94;16128922;19;128942;-42
2022/11/24 08:23:56;;;;;;;2.70;0.63;;;;;;;18.40;42.75;100845.31;16128006;19;129615;-41
2022/11/24 08:29:18;;;;;;;3.40;1.00;;;;;;;18.38;43.19;100847.47;16124023;19;129946;-43
2022/11/24 08:34:40;;;;;;;1.60;0.45;;;;;;;18.36;43.05;100855.16;16123320;19;131085;-47
2022/11/24 08:40:01;;;;;;;1.90;0.70;;;;;;;18.35;43.10;100864.56;16123149;19;130818;-44
2022/11/24 08:45:23;;;;;;;1.15;0.50;;;;;;;18.34;43.40;100879.50;16119866;19;129736;-45
2022/11/24 08:50:46;;;;;;;2.13;0.60;;;;;;;18.34;42.97;100889.75;16118843;19;130352;-47
2022/11/24 08:56:09;;;;;;;2.72;0.60;;;;;;;18.34;43.44;100890.56;16121889;19;130256;-44
2022/11/24 09:01:31;;;;;;;2.97;0.90;;;;;;;18.33;43.07;100900.00;16123995;19;130528;-43
2022/11/24 09:06:53;;;;;;;3.88;0.80;;;;;;;18.32;43.05;100909.38;16124657;19;129538;-45
2022/11/24 09:12:15;;;;;;;2.42;0.70;;;;;;;18.31;43.31;100913.25;16124477;19;129658;-42
2022/11/24 09:17:37;;;;;;;3.30;0.70;;;;;;;18.31;43.20;100914.06;16125207;19;133680;-43
2022/11/24 09:22:58;;;;;;;3.35;0.98;;;;;;;18.30;42.99;100908.78;16122678;19;129679;-43
2022/11/24 09:28:20;;;;;;;2.47;0.75;;;;;;;18.27;42.97;100921.19;16120670;19;129816;-45
2022/11/24 09:33:43;;;;;;;1.55;0.80;;;;;;;18.25;42.85;100931.69;16122799;19;134888;-46
2022/11/24 09:39:05;;;;;;;3.38;0.90;;;;;;;18.23;42.85;100935.75;16121029;19;129461;-54
2022/11/24 09:44:48;;;;;;;4.00;0.88;;;;;;;18.23;43.13;100938.53;16121440;19;130670;-53
2022/11/24 09:50:12;;;;;;;3.20;0.93;;;;;;;18.21;43.26;100951.78;16120125;19;129355;-58
2022/11/24 09:55:37;;;;;;;1.73;0.80;;;;;;;18.19;43.00;100960.31;16122622;19;129574;-61
2022/11/24 10:00:59;;;;;;;3.83;0.93;;;;;;;18.17;43.24;100968.03;16127419;19;129182;-49
2022/11/24 10:06:33;;;;;;;2.15;0.68;;;;;;;18.19;43.00;100970.56;16137098;19;129572;-52
2022/11/24 10:12:15;;;;;;;2.22;0.60;;;;;;;18.18;42.86;100974.44;16139685;19;130774;-48
2022/11/24 10:18:01;;;;;;;4.10;0.70;;;;;;;18.17;42.87;100967.19;16134254;19;129539;-49
2022/11/24 10:23:43;;;;;;;1.58;0.70;;;;;;;18.14;43.24;100974.06;16131889;19;129425;-45
2022/11/24 10:29:29;;;;;;;3.40;0.70;;;;;;;18.14;43.08;100974.91;16135853;19;129792;-52
2022/11/24 10:34:53;;;;;;;3.13;0.80;;;;;;;18.12;43.11;100970.69;16133010;19;129490;-48
2022/11/24 10:40:26;;;;;;;3.38;0.80;;;;;;;18.12;43.11;100963.22;16134420;19;130593;-51
2022/11/24 10:46:18;;;;;;;1.95;0.47;;;;;;;18.11;43.52;100969.00;16135271;19;129985;-51
2022/11/24 10:52:00;;;;;;;2.80;0.80;;;;;;;18.11;43.36;100972.59;16126978;19;129655;-49
2022/11/24 10:57:33;;;;;;;1.85;0.70;;;;;;;18.11;43.33;100977.31;16118100;19;133063;-50
2022/11/24 11:03:18;;;;;;;4.57;0.90;;;;;;;18.10;43.05;100983.94;16117485;19;129929;-50
2022/11/24 11:08:40;;;;;;;2.80;0.80;;;;;;;18.08;43.37;100980.56;16120461;19;129545;-52
2022/11/24 11:14:07;;;;;;;2.80;0.70;;;;;;;18.07;43.38;100989.94;16115801;19;130305;-52
2022/11/24 11:19:41;;;;;;;2.25;0.52;;;;;;;18.10;43.32;100981.16;16115496;19;130676;-49
2022/11/24 11:25:12;;;;;;;1.63;0.70;;;;;;;18.07;43.57;100987.19;16116053;19;130613;-48
2022/11/24 11:30:34;;;;;;;1.35;0.60;;;;;;;18.07;43.68;100987.19;16112525;19;129543;-49
2022/11/24 11:36:16;;;;;;;4.20;0.63;;;;;;;18.07;43.43;100974.19;16123777;19;130453;-49
2022/11/24 11:41:43;;;;;;;3.30;0.77;;;;;;;18.08;43.30;100981.41;16126194;19;130074;-52
2022/11/24 11:47:26;;;;;;;2.97;0.90;;;;;;;18.08;43.60;100980.56;16127872;19;129765;-43
2022/11/24 11:53:26;;;;;;;2.22;0.70;;;;;;;18.07;43.79;100976.97;16128014;19;129777;-46
2022/11/24 11:58:50;;;;;;;4.03;0.95;;;;;;;18.04;43.62;100974.66;16127772;19;129651;-43
2022/11/24 12:04:20;;;;;;;2.65;0.98;;;;;;;18.04;43.73;100971.91;16128927;19;131436;-42
2022/11/24 12:09:54;;;;;;;3.60;1.05;;;;;;;18.04;43.59;100985.75;16130482;19;129777;-47
2022/11/24 12:15:46;;;;;;;5.75;0.90;;;;;;;18.04;44.05;100969.13;16128716;19;130140;-47
2022/11/24 12:21:25;;;;;;;5.22;0.80;;;;;;;18.03;43.69;100967.44;16126123;19;129538;-45
2022/11/24 12:26:51;;;;;;;3.13;0.90;;;;;;;18.02;44.21;100967.69;16128849;19;129721;-45
2022/11/24 12:32:24;;;;;;;3.42;1.05;;;;;;;18.01;44.15;100958.53;16130487;19;129818;-44
2022/11/24 12:37:57;;;;;;;2.67;0.80;;;;;;;18.01;44.13;100969.59;16128138;19;129603;-45
2022/11/24 12:43:37;;;;;;;1.98;0.50;;;;;;;18.02;44.03;100963.00;16124152;19;129560;-44
2022/11/24 12:49:07;;;;;;;3.28;0.70;;;;;;;17.99;44.10;100974.53;16127935;19;129601;-43
2022/11/24 12:54:37;;;;;;;3.22;0.90;;;;;;;18.00;44.30;100968.78;16124839;19;129891;-46
2022/11/24 13:00:15;;;;;;;1.88;0.73;;;;;;;18.00;44.41;100976.22;16127662;19;130039;-45
2022/11/24 13:06:00;;;;;;;2.25;0.82;;;;;;;17.99;44.31;100967.09;16126126;19;129817;-42
2022/11/24 13:11:21;;;;;;;2.70;0.70;;;;;;;17.97;44.69;100973.97;16124832;19;130258;-45
2022/11/24 13:16:57;;;;;;;3.40;0.73;;;;;;;17.99;44.41;100969.00;16123121;19;129110;-43
2022/11/24 13:22:38;;;;;;;1.98;0.80;;;;;;;17.97;44.83;100962.88;16124811;19;129852;-43
2022/11/24 13:28:02;;;;;;;1.92;0.47;;;;;;;17.97;44.88;100947.09;16126130;19;129544;-43
2022/11/24 13:33:28;;;;;;;2.72;0.70;;;;;;;17.98;44.58;100956.25;16123905;19;129849;-45
2022/11/24 13:38:51;;;;;;;3.65;0.70;;;;;;;17.97;44.85;100955.41;16122109;19;129611;-43
2022/11/24 13:44:13;;;;;;;2.20;0.70;;;;;;;17.96;44.74;100961.19;16120536;19;129452;-42
2022/11/24 13:49:47;;;;;;;4.07;0.57;;;;;;;17.98;44.69;100956.25;16123247;19;130035;-44
2022/11/24 13:55:12;;;;;;;3.80;1.05;;;;;;;17.98;45.05;100947.94;16119902;19;129435;-46
2022/11/24 14:00:55;;;;;;;1.63;0.50;;;;;;;17.96;45.02;100945.41;16120819;19;129725;-43
2022/11/24 14:06:34;;;;;;;5.82;0.75;;;;;;;17.97;45.24;100951.81;16121937;19;129966;-43
2022/11/24 14:12:02;;;;;;;3.85;0.70;;;;;;;17.95;44.75;100953.97;16122777;19;129625;-45
2022/11/24 14:17:27;;;;;;;3.22;0.90;;;;;;;17.95;44.76;100954.81;16119371;19;129784;-43
2022/11/24 14:22:49;;;;;;;1.90;0.70;;;;;;;17.93;44.87;100972.75;16120692;19;130058;-46
2022/11/24 14:28:21;;;;;;;2.95;0.80;;;;;;;17.96;45.06;100972.28;16120821;19;129923;-43
2022/11/24 14:33:43;;;;;;;2.00;0.77;;;;;;;17.92;44.98;100971.88;16120110;19;129504;-44
2022/11/24 14:39:05;;;;;;;2.63;0.65;;;;;;;17.93;45.09;100967.22;16121874;19;129709;-42
2022/11/24 14:44:30;;;;;;;3.13;0.60;;;;;;;17.91;44.94;100953.59;16120735;19;129802;-43
2022/11/24 14:49:53;;;;;;;2.43;0.73;;;;;;;17.90;44.88;100964.91;16116978;19;130665;-45
2022/11/24 14:55:29;;;;;;;2.38;0.80;;;;;;;17.91;44.85;100966.59;16115498;19;129244;-44
2022/11/24 15:01:19;;;;;;;7.65;1.67;;;;;;;17.91;44.15;100963.84;16116863;19;129900;-46
2022/11/24 15:06:43;;;;;;;3.63;0.95;;;;;;;17.92;44.36;100966.34;16123170;19;129442;-42
2022/11/24 15:12:15;;;;;;;4.43;1.17;;;;;;;17.98;43.99;100965.41;16133970;19;129609;-44
2022/11/24 15:17:45;;;;;;;4.22;1.20;;;;;;;18.07;44.22;100968.66;16135470;19;131429;-45
2022/11/24 15:23:24;;;;;;;5.00;1.17;;;;;;;18.14;43.85;100963.00;16134548;19;129283;-44
2022/11/24 15:28:45;;;;;;;3.33;0.98;;;;;;;18.15;44.07;100957.22;16135467;19;129942;-43
2022/11/24 15:34:12;;;;;;;5.97;1.10;;;;;;;18.24;44.12;100948.50;16129397;19;129311;-43
2022/11/24 15:39:34;;;;;;;2.47;0.65;;;;;;;18.37;43.92;100944.66;16131745;19;130044;-43
2022/11/24 15:44:56;;;;;;;5.75;1.02;;;;;;;18.59;44.09;100942.09;16130249;19;129490;-45
2022/11/24 15:50:18;;;;;;;2.85;0.90;;;;;;;18.85;43.84;100939.81;16129075;19;129126;-42
2022/11/24 15:55:40;;;;;;;3.13;0.80;;;;;;;19.04;43.79;100949.63;16133733;19;129580;-43
2022/11/24 16:01:02;;;;;;;3.28;0.82;;;;;;;19.14;43.47;100959.22;16130957;19;132791;-43
2022/11/24 16:06:24;;;;;;;4.78;1.02;;;;;;;19.16;43.23;100957.06;16129842;19;129555;-46
2022/11/24 16:11:46;;;;;;;2.85;1.00;;;;;;;19.14;43.30;100962.00;16130070;19;130113;-42
2022/11/24 16:17:07;;;;;;;4.82;0.73;;;;;;;19.09;43.55;100962.75;16129426;19;129578;-45
2022/11/24 16:22:29;;;;;;;2.38;0.90;;;;;;;19.02;43.68;100957.34;16129037;19;129476;-43
2022/11/24 16:27:51;;;;;;;3.25;0.77;;;;;;;18.95;43.51;100955.81;16127620;19;130713;-43
2022/11/24 16:33:13;;;;;;;4.47;0.55;;;;;;;18.86;43.87;100959.00;16127008;19;130497;-43
2022/11/24 16:38:34;;;;;;;3.90;0.73;;;;;;;18.80;43.91;100953.59;16125053;19;130424;-43
2022/11/24 16:43:56;;;;;;;3.03;0.80;;;;;;;18.73;43.99;100950.97;16123506;19;129622;-43
2022/11/24 16:49:18;;;;;;;3.03;1.13;;;;;;;18.67;44.55;100963.88;16121858;19;129464;-42
2022/11/24 16:54:40;;;;;;;4.60;0.90;;;;;;;18.63;44.90;100967.41;16120348;19;130436;-43
2022/11/24 17:00:04;;;;;;;5.63;1.15;;;;;;;18.58;44.93;100963.41;16124109;19;131428;-42
2022/11/24 17:05:25;;;;;;;2.25;1.05;;;;;;;18.53;44.89;100977.16;16126638;19;130138;-42
2022/11/24 17:10:48;;;;;;;2.65;1.20;;;;;;;18.50;45.15;100974.91;16124225;19;129763;-43
2022/11/24 17:16:12;;;;;;;1.83;0.90;;;;;;;18.55;44.87;100968.63;16124062;19;129473;-43
2022/11/24 17:21:34;;;;;;;2.30;0.80;;;;;;;18.70;44.66;100965.31;16120491;19;129678;-43
2022/11/24 17:26:56;;;;;;;2.17;0.90;;;;;;;18.88;44.69;100965.13;16123294;19;130002;-44
2022/11/24 17:32:17;;;;;;;5.00;1.00;;;;;;;19.10;44.63;100963.56;16123054;19;129838;-43
2022/11/24 17:37:39;;;;;;;5.13;1.10;;;;;;;19.30;44.54;100958.44;16122349;19;130162;-40
2022/11/24 17:43:01;;;;;;;9.20;1.48;;;;;;;19.53;44.34;100951.06;16121942;19;129798;-42
2022/11/24 17:48:23;;;;;;;6.75;0.90;;;;;;;19.84;44.24;100948.78;16120994;19;129545;-43
2022/11/24 17:53:48;;;;;;;8.13;1.10;;;;;;;20.14;43.76;100939.25;16120743;19;129674;-40
2022/11/24 17:59:09;;;;;;;10.00;1.27;;;;;;;20.29;43.73;100920.03;16125892;19;129286;-43
2022/11/24 18:04:32;;;;;;;10.82;1.33;;;;;;;20.34;43.59;100929.50;16117046;19;129609;-42
2022/11/24 18:09:54;;;;;;;8.38;1.60;;;;;;;20.31;43.76;100932.81;16120566;19;129477;-44
2022/11/24 18:15:16;;;;;;;11.13;1.70;;;;;;;20.21;43.94;100923.22;16120443;19;129567;-41
2022/11/24 18:20:41;;;;;;;6.77;1.33;;;;;;;20.13;43.78;100920.91;16119994;19;130249;-40
2022/11/24 18:26:04;;;;;;;5.90;1.05;;;;;;;20.05;43.71;100919.41;16118581;19;129565;-41
2022/11/24 18:31:26;;;;;;;6.32;1.10;;;;;;;19.98;43.89;100914.00;16119336;19;130048;-40
2022/11/24 18:36:50;;;;;;;4.97;1.17;;;;;;;19.92;44.35;100914.19;16114991;19;129488;-40
2022/11/24 18:42:12;;;;;;;6.60;1.20;;;;;;;19.84;44.14;100912.69;16037714;19;130688;-43
2022/11/24 18:47:34;;;;;;;5.32;1.00;;;;;;;19.76;44.43;100930.59;16117852;19;129318;-42
2022/11/24 18:52:56;;;;;;;3.63;1.08;;;;;;;19.64;44.57;100915.97;16115697;19;130230;-42
2022/11/24 18:58:20;;;;;;;12.52;1.77;;;;;;;19.57;44.47;100940.31;16120397;19;129839;-47
2022/11/24 19:03:44;;;;;;;12.00;1.55;;;;;;;19.51;44.43;100936.59;16117348;19;131201;-42
2022/11/24 19:09:17;;;;;;;14.63;2.35;;;;;;;19.59;44.40;100938.94;16115805;19;129226;-41
2022/11/24 19:14:39;;;;;;;15.70;1.58;;;;;;;19.78;44.68;100933.16;16116006;19;131501;-43
2022/11/24 19:20:01;;;;;;;13.93;1.65;;;;;;;19.94;44.11;100918.38;16106682;19;129867;-43
2022/11/24 19:25:23;;;;;;;12.55;1.52;;;;;;;20.12;43.95;100908.13;16109836;19;131260;-42
2022/11/24 19:30:44;;;;;;;13.85;1.60;;;;;;;20.26;44.06;100914.13;16115306;19;129902;-41
2022/11/24 19:36:12;;;;;;;10.10;1.30;;;;;;;20.37;43.72;100917.88;16115588;19;129933;-42
2022/11/24 19:41:34;;;;;;;6.32;1.30;;;;;;;20.41;43.37;100917.09;16116287;19;129237;-44
2022/11/24 19:46:55;;;;;;;7.32;1.40;;;;;;;20.42;43.56;100912.41;16112753;19;129916;-44
2022/11/24 19:52:17;;;;;;;12.85;1.90;;;;;;;20.39;43.67;100912.91;16117267;19;130652;-40
2022/11/24 19:57:39;;;;;;;14.88;1.60;;;;;;;20.33;43.71;100909.22;16126416;19;130110;-39
2022/11/24 20:03:01;;;;;;;11.65;1.60;;;;;;;20.23;43.69;100903.53;16126670;19;129611;-39
2022/11/24 20:08:22;;;;;;;24.48;2.15;;;;;;;20.16;43.71;100908.44;16125032;19;129651;-39
2022/11/24 20:13:45;;;;;;;21.42;2.20;;;;;;;20.08;43.76;100901.38;16126730;19;129700;-39
2022/11/24 20:19:11;;;;;;;14.60;1.92;;;;;;;20.03;43.47;100916.03;16127952;19;129554;-38
2022/11/24 20:24:33;;;;;;;10.82;1.95;;;;;;;19.98;43.63;100902.91;16129540;19;129943;-39
2022/11/24 20:29:55;;;;;;;9.77;1.60;;;;;;;20.02;43.71;100891.31;16128154;19;129911;-41
2022/11/24 20:35:17;;;;;;;13.35;1.55;;;;;;;20.03;43.19;100893.81;16125336;19;135549;-42
2022/11/24 20:40:42;;;;;;;8.65;1.27;;;;;;;20.04;43.18;100894.69;16125882;19;130064;-43
2022/11/24 20:46:07;;;;;;;10.63;1.30;;;;;;;20.01;43.71;100892.41;16125342;19;129728;-41
2022/11/24 20:51:32;;;;;;;16.40;1.85;;;;;;;19.93;43.61;100883.41;16122674;19;130540;-40
2022/11/24 20:56:54;;;;;;;13.23;2.15;;;;;;;19.85;43.64;100878.28;16125375;19;129507;-40
2022/11/24 21:02:16;;;;;;;12.70;1.58;;;;;;;19.81;43.54;100888.22;16126517;19;129359;-40
2022/11/24 21:07:37;;;;;;;8.90;1.45;;;;;;;19.81;43.25;100877.13;16124069;19;129684;-42
2022/11/24 21:12:59;;;;;;;6.15;1.42;;;;;;;19.82;43.25;100892.66;16123735;19;130030;-40
2022/11/24 21:18:21;;;;;;;10.63;1.30;;;;;;;19.78;43.30;100877.63;16125361;19;129845;-39
2022/11/24 21:23:45;;;;;;;8.15;0.95;;;;;;;19.73;43.52;100867.28;16117772;19;129546;-40
2022/11/24 21:29:10;;;;;;;8.27;1.37;;;;;;;19.65;43.21;100863.00;16119289;19;129681;-41
2022/11/24 21:34:32;;;;;;;4.70;1.20;;;;;;;19.60;43.60;100862.94;16120280;19;131516;-40
2022/11/24 21:39:54;;;;;;;9.55;1.20;;;;;;;19.53;43.61;100856.72;16122243;19;129621;-40
2022/11/24 21:45:15;;;;;;;4.82;1.10;;;;;;;19.48;43.60;100853.84;16120748;19;129419;-40
2022/11/24 21:50:37;;;;;;;5.07;1.30;;;;;;;19.42;43.85;100844.63;16122491;19;130818;-40
2022/11/24 21:56:01;;;;;;;6.30;1.20;;;;;;;19.35;43.87;100839.25;16124023;19;129347;-39
2022/11/24 22:01:26;;;;;;;8.38;1.20;;;;;;;19.28;43.64;100844.13;16121487;19;129657;-39
2022/11/24 22:06:48;;;;;;;;;;;;;;;19.20;43.85;100844.53;16121394;19;129381;-40
2022/11/24 22:12:10;;;;;;;3.40;1.00;;;;;;;19.19;44.00;100846.44;16119822;19;129903;-40
2022/11/24 22:17:32;;;;;;;7.72;1.30;;;;;;;19.15;43.58;100838.91;16111051;19;130148;-39
2022/11/24 22:22:53;;;;;;;3.25;1.05;;;;;;;19.12;43.65;100822.75;16109531;19;130461;-40
2022/11/24 22:28:15;;;;;;;3.25;0.88;;;;;;;19.10;43.63;100825.78;16108505;19;129494;-42
2022/11/24 22:33:37;;;;;;;6.68;1.10;;;;;;;19.08;44.04;100822.41;16119295;19;130856;-40
2022/11/24 22:39:04;;;;;;;1.60;0.80;;;;;;;19.04;43.60;100824.88;16122250;19;129849;-40
2022/11/24 22:44:26;;;;;;;4.38;0.93;;;;;;;19.01;43.58;100836.44;16117539;19;129796;-38
2022/11/24 22:49:47;;;;;;;3.33;0.77;;;;;;;18.99;43.91;100832.25;16115408;19;129525;-39
2022/11/24 22:55:09;;;;;;;2.42;1.17;;;;;;;18.95;43.64;100822.75;16117104;19;130136;-39
2022/11/24 23:00:31;;;;;;;3.67;0.73;;;;;;;18.93;43.56;100825.78;16117940;19;129474;-40
2022/11/24 23:05:52;;;;;;;2.72;0.90;;;;;;;18.92;43.94;100821.31;16114034;19;129503;-39
2022/11/24 23:11:20;;;;;;;3.42;1.13;;;;;;;18.90;43.96;100824.34;16115883;19;129493;-39
2022/11/24 23:16:49;;;;;;;3.92;1.13;;;;;;;18.86;43.85;100814.00;16112614;19;129334;-42
2022/11/24 23:22:11;;;;;;;5.25;0.77;;;;;;;18.84;43.50;100810.63;16113320;19;129347;-41
2022/11/24 23:27:33;;;;;;;2.88;0.70;;;;;;;18.81;43.80;100811.97;16118763;19;129816;-39
2022/11/24 23:32:54;;;;;;;3.03;0.75;;;;;;;18.77;43.96;100797.78;16129876;19;129451;-39
2022/11/24 23:38:16;;;;;;;2.42;0.60;;;;;;;18.75;43.60;100813.00;16128738;19;129248;-40
2022/11/24 23:43:40;;;;;;;2.05;0.70;;;;;;;18.74;43.87;100809.38;16129714;19;131252;-40
2022/11/24 23:49:02;;;;;;;3.10;0.80;;;;;;;18.72;43.80;100810.72;16133207;19;133684;-39
2022/11/24 23:54:24;;;;;;;3.30;0.57;;;;;;;18.69;44.09;100803.75;16127995;19;129097;-41
2022/11/24 23:59:45;;;;;;;1.98;0.85;;;;;;;18.68;43.78;100809.53;16129562;19;129457;-40
